Troy, Minnesota
Current Conditions -  °F | °C
As of 11:34 PM on Thursday 30 Oct 2014 (Local Time) from KONA Reporting Station
Overcast Overcast  
Wind Chill: 30°   Ceiling: 4600
Heat Index: 37°   Visibility: 10mi
Dew Point: 28°   Wind: 10mph
Humidity: 70%   Direction: 350°N
Pressure: 30.23"   Gusts: 23mph
Location:  43.9334°N, 92.0195°W
Report Text: KONA 310434Z AUTO 35009G20KT 10SM SCT039 BKN046 OVC050 03/M02 A3023 RMK AO2
Loading
Personal Weather Stations






























Interactive Weather Map
Tropical Storm Tracking
New forecast layout! Learn more

10-Day Weather Forecast

Advertisements
Track Severe Weather on mobile